This is the latest recevied weather packets stored in our database for station/object KI4FRU. If no packets are shown the sender has not sent any weather packets the latest 10 day(s).
| Time | Temp. | Humidity | Pressure | Rain* | Wind** | Luminosity | Snow |
|---|---|---|---|---|---|---|---|
| 1777928696 | 28.33° C | 40% | 1052.3 hPa | 0 mm | - | 366 W/m² | - |
| 1777928393 | 30° C | 42% | 1052.3 hPa | 0 mm | - | 93 W/m² | - |
| 1777928090 | 27.78° C | 41% | 1052.5 hPa | 0 mm | - | 385 W/m² | - |
| 1777927788 | 28.89° C | 43% | 1052.6 hPa | 0 mm | - | 90 W/m² | - |
| 1777927481 | 28.33° C | 40% | 1052.5 hPa | 0 mm | - | 417 W/m² | - |
| 1777927180 | 28.33° C | 42% | 1052.5 hPa | 0 mm | - | 437 W/m² | - |
| 1777926877 | 29.44° C | 41% | 1052.6 hPa | 0 mm | - | 428 W/m² | - |
| 1777926573 | 28.89° C | 40% | 1052.7 hPa | 0 mm | - | 460 W/m² | - |
| 1777926270 | 28.89° C | 39% | 1052.6 hPa | 0 mm | - | 467 W/m² | - |
| 1777925967 | 28.33° C | 42% | 1052.9 hPa | 0 mm | - | 488 W/m² | - |
| 1777925664 | 28.89° C | 39% | 1052.9 hPa | 0 mm | - | 500 W/m² | - |
| 1777925361 | 28.33° C | 42% | 1052.9 hPa | 0 mm | - | 427 W/m² | - |
| 1777925057 | 28.33° C | 42% | 1052.9 hPa | 0 mm | - | 427 W/m² | - |
| 1777924754 | 28.33° C | 42% | 1052.9 hPa | 0 mm | - | 427 W/m² | - |
| 1777924450 | 28.89° C | 43% | 1053.2 hPa | 0 mm | - | 551 W/m² | - |
| 1777924147 | 30° C | 42% | 1053 hPa | 0 mm | - | 79 W/m² | - |
| 1777923842 | 27.78° C | 44% | 1053.1 hPa | 0 mm | - | 572 W/m² | - |
| 1777923539 | 27.78° C | 43% | 1053.3 hPa | 0 mm | - | 588 W/m² | - |
| 1777923236 | 28.89° C | 42% | 1053.2 hPa | 0 mm | - | 201 W/m² | - |
| 1777922935 | 28.33° C | 43% | 1053.3 hPa | 0 mm | - | 443 W/m² | - |
| 1777922632 | 29.44° C | 42% | 1053.4 hPa | 0 mm | - | 65 W/m² | - |
| 1777922330 | 27.78° C | 43% | 1053.5 hPa | 0 mm | - | 380 W/m² | - |
| 1777922028 | 26.67° C | 44% | 1053.5 hPa | 0 mm | - | 633 W/m² | - |
| 1777921723 | 26.67° C | 44% | 1053.6 hPa | 0 mm | - | 417 W/m² | - |
| 1777921419 | 27.78° C | 44% | 1053.6 hPa | 0 mm | - | 57 W/m² | - |
* Rain latest hour (hover to see other rain measurements)
** Current wind speed in m/s (hover to see current wind gust speed)